Time;durP1;ratioP1;P1;durP2;ratioP2;P2;SDS_P1;SDS_P2;PMS_P1;PMS_P2;Temp;Humidity;BMP_temperature;BMP_pressure;BME280_temperature;BME280_humidity;BME280_pressure;Samples;Min_cycle;Max_cycle;Signal;HPM_P1;HPM_P2
2021/01/11 00:02:01;;;;;;;9.63;7.18;;;26.10;2201.60;;;;;;5017306;28;20034;-70
2021/01/11 00:04:27;;;;;;;13.75;8.15;;;26.30;2201.60;;;;;;5017027;28;20033;-70
2021/01/11 00:06:54;;;;;;;11.65;8.52;;;26.40;2201.60;;;;;;5016341;28;20116;-71
2021/01/11 00:09:21;;;;;;;12.70;8.55;;;51.20;2227.20;;;;;;5016341;28;20339;-72
2021/01/11 00:11:46;;;;;;;18.27;11.50;;;51.20;2227.20;;;;;;5017121;28;20459;-70
2021/01/11 00:14:12;;;;;;;13.40;9.38;;;26.50;2201.60;;;;;;5017024;28;20087;-71
2021/01/11 00:16:38;;;;;;;15.73;9.63;;;26.50;2201.60;;;;;;5016229;28;20442;-71
2021/01/11 00:19:04;;;;;;;14.90;10.38;;;51.40;2227.20;;;;;;5016771;28;20032;-70
2021/01/11 00:21:30;;;;;;;12.90;9.48;;;51.20;2227.20;;;;;;5017132;28;20099;-71
2021/01/11 00:23:56;;;;;;;9.75;7.35;;;51.50;2227.20;;;;;;4999397;28;20371;-71
2021/01/11 00:26:22;;;;;;;11.38;7.70;;;51.50;2227.20;;;;;;5016840;28;20399;-71
2021/01/11 00:28:48;;;;;;;7.72;5.75;;;51.50;2227.20;;;;;;5009485;28;20038;-71
2021/01/11 00:31:24;;;;;;;12.07;7.00;;;51.40;2227.20;;;;;;5006183;28;20070;-71
2021/01/11 00:33:51;;;;;;;11.10;7.40;;;51.40;2227.20;;;;;;5006491;28;20084;-71
2021/01/11 00:36:18;;;;;;;12.40;8.00;;;51.40;2227.20;;;;;;5005206;28;20034;-71
2021/01/11 00:38:46;;;;;;;14.38;9.48;;;51.50;2227.20;;;;;;5006757;28;20018;-71
2021/01/11 00:41:22;;;;;;;14.30;9.85;;;51.50;2227.20;;;;;;5007015;28;20025;-71
2021/01/11 00:43:49;;;;;;;14.30;9.93;;;51.50;2227.20;;;;;;5005791;28;20343;-71
2021/01/11 00:46:25;;;;;;;17.25;10.50;;;51.50;2227.20;;;;;;5004894;28;20031;-71
2021/01/11 00:48:51;;;;;;;12.30;9.45;;;51.60;2227.20;;;;;;5012202;28;20034;-71
2021/01/11 00:51:17;;;;;;;10.80;8.57;;;51.50;2227.20;;;;;;5016074;28;20442;-71
2021/01/11 00:53:44;;;;;;;11.23;8.00;;;51.40;2227.20;;;;;;5016533;28;20046;-70
2021/01/11 00:56:19;;;;;;;14.75;9.80;;;51.50;2227.20;;;;;;5016491;28;20033;-72
2021/01/11 00:58:46;;;;;;;16.27;11.38;;;26.50;2201.60;;;;;;5014106;28;20033;-71
2021/01/11 01:01:14;;;;;;;19.52;12.63;;;26.30;2201.60;;;;;;4998578;28;20345;-71
2021/01/11 01:03:41;;;;;;;14.70;10.95;;;26.20;2201.60;;;;;;5018188;28;20051;-71
2021/01/11 01:06:12;;;;;;;13.13;10.43;;;26.40;2201.60;;;;;;5018387;28;20053;-71
2021/01/11 01:08:38;;;;;;;15.65;10.65;;;51.30;2227.20;;;;;;5018641;28;20026;-71
2021/01/11 01:11:04;;;;;;;18.52;12.50;;;51.20;2227.20;;;;;;5018587;28;20036;-70
2021/01/11 01:13:30;;;;;;;26.13;14.90;;;51.40;2227.20;;;;;;5018168;28;20070;-70
2021/01/11 01:15:56;;;;;;;10.60;6.93;;;51.60;2227.20;;;;;;5017898;28;20112;-71
2021/01/11 01:18:22;;;;;;;9.38;7.28;;;51.20;2227.20;;;;;;5017918;28;20053;-71
2021/01/11 01:20:48;;;;;;;21.23;12.05;;;51.50;2227.20;;;;;;5017888;28;20100;-71
2021/01/11 01:23:14;;;;;;;17.33;10.82;;;51.50;2227.20;;;;;;5017586;28;20371;-70
2021/01/11 01:25:39;;;;;;;22.77;14.63;;;51.70;2227.20;;;;;;5018042;28;20033;-70
2021/01/11 01:28:07;;;;;;;17.33;11.00;;;51.80;2227.20;;;;;;5017180;28;20022;-71
2021/01/11 01:30:33;;;;;;;29.23;19.08;;;51.80;2227.20;;;;;;5017638;28;20030;-71
2021/01/11 01:32:59;;;;;;;14.30;9.30;;;51.90;2227.20;;;;;;5018069;28;20337;-71
2021/01/11 01:35:25;;;;;;;9.60;6.80;;;51.80;2227.20;;;;;;5017612;28;20026;-71
2021/01/11 01:37:51;;;;;;;8.48;7.28;;;51.60;2227.20;;;;;;5016677;28;20121;-71
2021/01/11 01:40:17;;;;;;;11.43;8.38;;;51.60;2227.20;;;;;;5017548;28;20064;-71
2021/01/11 01:42:42;;;;;;;12.23;8.57;;;51.80;2227.20;;;;;;5017770;28;20025;-71
2021/01/11 01:45:09;;;;;;;11.60;8.25;;;51.80;2227.20;;;;;;5018025;28;20033;-71
2021/01/11 01:47:35;;;;;;;15.20;8.10;;;51.90;2227.20;;;;;;5017720;28;20108;-70
2021/01/11 01:50:04;;;;;;;11.48;8.98;;;51.70;2227.20;;;;;;5017980;28;20030;-70
2021/01/11 01:52:30;;;;;;;9.63;7.13;;;51.70;2227.20;;;;;;5017843;28;20049;-71
2021/01/11 01:54:56;;;;;;;8.07;6.70;;;51.60;2227.20;;;;;;5017555;28;20049;-71
2021/01/11 01:57:22;;;;;;;15.25;10.75;;;51.70;2227.20;;;;;;5017741;28;20022;-71
2021/01/11 01:59:49;;;;;;;15.98;10.15;;;51.60;2227.20;;;;;;5017453;28;20049;-71
2021/01/11 02:02:18;;;;;;;11.38;8.98;;;51.40;2227.20;;;;;;5017500;28;20029;-71
2021/01/11 02:04:44;;;;;;;10.82;7.78;;;51.50;2227.20;;;;;;5017784;28;20415;-70
2021/01/11 02:07:18;;;;;;;8.25;6.65;;;51.60;2227.20;;;;;;5017548;28;20162;-71
2021/01/11 02:10:19;;;;;;;10.32;7.50;;;51.70;2227.20;;;;;;5017719;28;20049;-70
2021/01/11 02:13:16;;;;;;;11.93;8.02;;;51.70;2227.20;;;;;;5017087;28;20112;-70
2021/01/11 02:15:53;;;;;;;12.18;8.93;;;51.70;2227.20;;;;;;5017397;28;20400;-70
2021/01/11 02:18:54;;;;;;;9.60;7.72;;;51.70;2227.20;;;;;;5017370;28;20025;-72
2021/01/11 02:21:50;;;;;;;12.23;8.20;;;51.70;2227.20;;;;;;5017129;28;20129;-71
2021/01/11 02:24:40;;;;;;;11.70;8.70;;;51.60;2227.20;;;;;;5017391;28;20030;-70
2021/01/11 02:27:43;;;;;;;12.48;8.63;;;51.50;2227.20;;;;;;5017404;28;20335;-70
2021/01/11 02:30:15;;;;;;;12.80;8.52;;;51.70;2227.20;;;;;;5016819;28;20033;-71
2021/01/11 02:32:57;;;;;;;9.40;6.90;;;51.80;2227.20;;;;;;5017109;28;20056;-70
2021/01/11 02:35:24;;;;;;;8.27;5.70;;;51.80;2227.20;;;;;;5016984;28;20030;-70
2021/01/11 02:37:51;;;;;;;7.93;5.65;;;51.90;2227.20;;;;;;5016958;28;20018;-71
2021/01/11 02:40:17;;;;;;;8.13;6.43;;;52.00;2227.20;;;;;;5017161;28;20415;-71
2021/01/11 02:42:43;;;;;;;8.13;6.28;;;51.80;2227.20;;;;;;5016856;28;20029;-71
2021/01/11 02:45:10;;;;;;;10.70;8.07;;;51.80;2227.20;;;;;;5017122;28;20331;-71
2021/01/11 02:48:11;;;;;;;9.50;6.47;;;51.80;2227.20;;;;;;5017380;28;20022;-70
2021/01/11 02:51:06;;;;;;;9.43;7.10;;;51.50;2227.20;;;;;;4921952;29;20040;-70
2021/01/11 02:53:42;;;;;;;9.05;7.40;;;51.50;2227.20;;;;;;4922065;29;20122;-70
2021/01/11 02:56:10;;;;;;;8.85;6.68;;;51.30;2227.20;;;;;;4921754;29;20100;-71
2021/01/11 02:58:55;;;;;;;10.32;6.97;;;51.40;2227.20;;;;;;4921628;29;20212;-72
2021/01/11 03:01:22;;;;;;;8.52;6.38;;;51.50;2227.20;;;;;;4922181;29;20100;-70
2021/01/11 03:03:50;;;;;;;11.90;8.00;;;51.50;2227.20;;;;;;4922106;29;20127;-71
2021/01/11 03:06:17;;;;;;;10.60;7.50;;;51.60;2227.20;;;;;;4921413;29;20062;-71
2021/01/11 03:08:43;;;;;;;11.50;7.63;;;51.70;2227.20;;;;;;4921695;29;20031;-70
2021/01/11 03:11:08;;;;;;;8.75;6.43;;;51.80;2227.20;;;;;;4921525;29;20449;-69
2021/01/11 03:13:35;;;;;;;7.43;6.00;;;51.60;2227.20;;;;;;4921297;29;20044;-72
2021/01/11 03:16:01;;;;;;;11.20;6.72;;;51.50;2227.20;;;;;;4921573;29;20059;-71
2021/01/11 03:18:26;;;;;;;9.15;6.80;;;51.30;2227.20;;;;;;4921059;29;20039;-70
2021/01/11 03:20:52;;;;;;;9.75;6.32;;;51.20;2227.20;;;;;;4921519;29;20510;-70
2021/01/11 03:23:18;;;;;;;8.77;6.38;;;51.20;2227.20;;;;;;4921771;29;20032;-70
2021/01/11 03:25:44;;;;;;;8.65;5.93;;;51.20;2227.20;;;;;;4923927;28;20335;-70
2021/01/11 03:28:10;;;;;;;7.60;5.05;;;51.20;2227.20;;;;;;5019946;28;20017;-71
2021/01/11 03:30:36;;;;;;;7.70;5.22;;;51.20;2227.20;;;;;;5019903;28;20030;-70
2021/01/11 03:33:02;;;;;;;6.78;4.15;;;51.20;2227.20;;;;;;5019808;28;20634;-71
2021/01/11 03:35:28;;;;;;;7.88;4.43;;;51.20;2227.20;;;;;;5020062;28;20034;-71
2021/01/11 03:37:54;;;;;;;6.18;4.30;;;51.20;2227.20;;;;;;5020000;28;20331;-70
2021/01/11 03:40:20;;;;;;;5.30;3.85;;;51.20;2227.20;;;;;;5019225;28;20025;-72
2021/01/11 03:42:45;;;;;;;5.38;3.65;;;26.50;2201.60;;;;;;5019931;28;20026;-70
2021/01/11 03:45:12;;;;;;;6.15;4.93;;;26.50;2201.60;;;;;;5019889;28;20026;-70
2021/01/11 03:47:38;;;;;;;6.13;4.28;;;26.50;2201.60;;;;;;5019857;28;20035;-70
2021/01/11 03:50:06;;;;;;;5.50;4.28;;;51.20;2227.20;;;;;;5019715;28;20030;-71
2021/01/11 03:52:36;;;;;;;5.78;4.10;;;51.20;2227.20;;;;;;5019225;28;20157;-70
2021/01/11 03:55:03;;;;;;;9.10;5.43;;;26.50;2201.60;;;;;;5019709;28;20041;-70
2021/01/11 03:57:30;;;;;;;10.10;6.20;;;51.20;2227.20;;;;;;5019397;28;20049;-71
2021/01/11 03:59:57;;;;;;;9.20;6.03;;;26.40;2201.60;;;;;;5019039;28;20026;-71
2021/01/11 04:02:22;;;;;;;12.18;6.43;;;26.40;2201.60;;;;;;5008862;28;20030;-71
2021/01/11 04:04:48;;;;;;;9.00;5.93;;;26.30;2201.60;;;;;;4999943;28;20482;-71
2021/01/11 04:07:14;;;;;;;9.82;5.90;;;26.30;2201.60;;;;;;4999376;28;20466;-71
2021/01/11 04:09:40;;;;;;;9.88;5.72;;;26.30;2201.60;;;;;;5015714;28;20047;-70
2021/01/11 04:12:06;;;;;;;8.73;5.25;;;26.40;2201.60;;;;;;5019413;28;20061;-71
2021/01/11 04:14:32;;;;;;;8.43;4.50;;;26.40;2201.60;;;;;;5019287;28;20041;-71
2021/01/11 04:16:58;;;;;;;7.07;4.03;;;26.40;2201.60;;;;;;5019519;28;20026;-70
2021/01/11 04:19:24;;;;;;;7.15;4.07;;;26.40;2201.60;;;;;;5011552;28;20025;-70
2021/01/11 04:21:49;;;;;;;8.35;4.70;;;26.40;2201.60;;;;;;4998844;28;20049;-70
2021/01/11 04:24:15;;;;;;;7.88;5.00;;;26.50;2201.60;;;;;;4999336;28;20351;-70
2021/01/11 04:26:44;;;;;;;6.53;4.38;;;51.20;2227.20;;;;;;4999278;28;20030;-70
2021/01/11 04:29:09;;;;;;;5.40;3.10;;;26.50;2201.60;;;;;;4999262;28;20434;-71
2021/01/11 04:31:35;;;;;;;6.75;3.97;;;51.30;2227.20;;;;;;5004137;28;20105;-71
2021/01/11 04:34:01;;;;;;;7.75;4.78;;;51.30;2227.20;;;;;;5007638;28;20027;-70
2021/01/11 04:36:27;;;;;;;9.70;6.03;;;51.30;2227.20;;;;;;5008775;28;20036;-70
2021/01/11 04:38:52;;;;;;;10.90;5.68;;;51.30;2227.20;;;;;;5002060;28;20129;-72
2021/01/11 04:41:20;;;;;;;9.38;5.40;;;26.50;2201.60;;;;;;5008436;28;20365;-72
2021/01/11 04:43:49;;;;;;;9.77;6.27;;;26.50;2201.60;;;;;;5004436;28;20351;-71
2021/01/11 04:46:15;;;;;;;;;;;26.50;2201.60;;;;;;5005000;28;20030;-72
2021/01/11 04:48:42;;;;;;;9.00;5.30;;;26.50;2201.60;;;;;;5018993;28;20359;-71
2021/01/11 04:51:09;;;;;;;8.57;5.22;;;26.50;2201.60;;;;;;5018707;28;20442;-71
2021/01/11 04:53:35;;;;;;;12.18;7.55;;;26.50;2201.60;;;;;;5016085;28;20428;-72
2021/01/11 04:56:05;;;;;;;10.05;6.30;;;26.50;2201.60;;;;;;4998688;28;20076;-72
2021/01/11 04:58:52;;;;;;;9.65;5.85;;;51.20;2227.20;;;;;;5006298;28;20033;-72
2021/01/11 05:01:22;;;;;;;9.38;5.35;;;51.30;2227.20;;;;;;5009193;28;20037;-71
2021/01/11 10:24:38;;;;;;;38.88;17.23;;;102.40;2227.20;;;;;;5713761;23;908452;-69
2021/01/11 10:27:04;;;;;;;66.97;18.65;;;77.70;2227.20;;;;;;6107683;23;20006;-70
2021/01/11 10:29:29;;;;;;;54.22;17.90;;;102.40;2227.20;;;;;;6107069;23;20398;-70
2021/01/11 10:31:55;;;;;;;61.08;18.63;;;102.40;2227.20;;;;;;6107391;23;19994;-70
2021/01/11 10:34:21;;;;;;;39.78;17.25;;;102.40;2227.20;;;;;;6106140;23;20006;-69
2021/01/11 10:36:49;;;;;;;62.80;17.45;;;102.60;2227.20;;;;;;6107461;23;19994;-68
2021/01/11 10:39:20;;;;;;;52.45;18.15;;;102.50;2227.20;;;;;;6106790;23;19994;-70
2021/01/11 10:41:56;;;;;;;47.45;18.38;;;102.40;2227.20;;;;;;6107681;23;19990;-70
2021/01/11 10:44:23;;;;;;;58.85;19.70;;;77.70;2227.20;;;;;;6107333;23;19998;-68
2021/01/11 10:46:50;;;;;;;44.60;19.40;;;102.40;2227.20;;;;;;6105420;23;20326;-70
2021/01/11 10:49:16;;;;;;;37.55;17.73;;;102.40;2227.20;;;;;;6105934;23;20073;-69
2021/01/11 10:51:41;;;;;;;55.20;19.30;;;77.60;2227.20;;;;;;6106282;23;20050;-70
2021/01/11 10:54:07;;;;;;;39.45;18.25;;;77.60;2227.20;;;;;;6106637;23;20010;-68
2021/01/11 10:56:33;;;;;;;37.30;19.52;;;77.60;2227.20;;;;;;6105737;23;20037;-70
2021/01/11 10:58:59;;;;;;;32.58;18.45;;;77.60;2227.20;;;;;;6105097;23;19990;-68
2021/01/11 11:01:25;;;;;;;33.97;18.05;;;77.60;2227.20;;;;;;6106222;23;20306;-69
2021/01/11 11:03:51;;;;;;;36.35;17.63;;;77.60;2227.20;;;;;;6105555;23;20053;-68
2021/01/11 11:06:25;;;;;;;38.50;19.35;;;77.60;2227.20;;;;;;6102703;23;19998;-71
2021/01/11 11:08:54;;;;;;;43.08;20.27;;;77.40;2227.20;;;;;;6099935;23;20022;-70
2021/01/11 11:11:20;;;;;;;43.28;18.77;;;77.20;2227.20;;;;;;6100546;23;20033;-69
2021/01/11 11:13:46;;;;;;;31.40;17.42;;;77.10;2227.20;;;;;;6099327;23;19995;-68
2021/01/11 11:16:12;;;;;;;46.40;19.05;;;77.00;2227.20;;;;;;6100752;23;19990;-66
2021/01/11 11:18:39;;;;;;;37.67;18.95;;;77.10;2227.20;;;;;;6100077;23;19998;-67
2021/01/11 11:21:12;;;;;;;32.45;18.05;;;77.20;2227.20;;;;;;6099702;23;19994;-68
2021/01/11 11:23:39;;;;;;;31.63;17.73;;;77.10;2227.20;;;;;;6098272;23;20394;-67
2021/01/11 11:26:05;;;;;;;38.25;18.65;;;77.10;2227.20;;;;;;6100088;23;20462;-68
2021/01/11 11:28:33;;;;;;;39.88;18.60;;;77.10;2227.20;;;;;;6099481;23;19998;-66
2021/01/11 11:30:58;;;;;;;33.13;17.67;;;77.20;2227.20;;;;;;6097514;23;20002;-67
2021/01/11 11:33:25;;;;;;;32.60;18.33;;;77.30;2227.20;;;;;;6100028;23;20409;-69
2021/01/11 11:35:51;;;;;;;34.47;16.85;;;77.30;2227.20;;;;;;6099955;23;20002;-67
2021/01/11 11:38:21;;;;;;;37.60;19.45;;;77.30;2227.20;;;;;;6100223;23;20022;-67
2021/01/11 11:40:47;;;;;;;51.15;21.90;;;77.40;2227.20;;;;;;6099735;23;20005;-67
2021/01/11 11:43:14;;;;;;;44.58;21.75;;;77.40;2227.20;;;;;;6100316;23;20001;-69
2021/01/11 11:45:44;;;;;;;40.30;19.58;;;77.50;2227.20;;;;;;6100000;23;20034;-67
2021/01/11 11:48:13;;;;;;;35.33;18.25;;;77.50;2227.20;;;;;;6098632;23;20002;-68
2021/01/11 11:50:40;;;;;;;37.55;18.30;;;77.30;2227.20;;;;;;6099635;23;20306;-69
2021/01/11 11:53:06;;;;;;;43.10;20.33;;;77.30;2227.20;;;;;;6099851;23;20290;-68
2021/01/11 11:55:32;;;;;;;38.90;17.75;;;77.30;2227.20;;;;;;6099447;23;20006;-67
2021/01/11 11:57:59;;;;;;;43.60;19.23;;;77.20;2227.20;;;;;;6100747;23;20005;-69
2021/01/11 12:00:24;;;;;;;50.40;18.40;;;77.10;2227.20;;;;;;6099738;23;20433;-67
2021/01/11 12:02:50;;;;;;;40.33;19.92;;;77.10;2227.20;;;;;;6099317;23;20002;-68
2021/01/11 12:05:17;;;;;;;49.70;17.98;;;77.10;2227.20;;;;;;6098762;23;20002;-69
2021/01/11 12:07:47;;;;;;;36.70;18.20;;;77.10;2227.20;;;;;;6099578;23;19999;-68
2021/01/11 12:10:13;;;;;;;44.35;17.95;;;77.10;2227.20;;;;;;6099506;23;20390;-69
2021/01/11 12:12:39;;;;;;;47.70;19.02;;;77.00;2227.20;;;;;;6099833;23;20037;-67
2021/01/11 12:15:06;;;;;;;34.10;17.33;;;76.90;2227.20;;;;;;6099489;23;20296;-68
2021/01/11 12:17:32;;;;;;;46.65;17.92;;;76.80;2227.20;;;;;;6097894;23;20022;-69
2021/01/11 12:19:59;;;;;;;36.08;16.95;;;52.10;2227.20;;;;;;6098998;23;20409;-69
2021/01/11 12:22:26;;;;;;;37.28;18.08;;;76.80;2227.20;;;;;;6098807;23;20282;-70
2021/01/11 12:24:52;;;;;;;38.53;17.60;;;52.10;2227.20;;;;;;6098930;23;20316;-69
2021/01/11 12:27:18;;;;;;;44.63;19.33;;;52.00;2227.20;;;;;;6099367;23;20081;-68
2021/01/11 12:29:44;;;;;;;38.35;18.42;;;51.90;2227.20;;;;;;6099283;23;19990;-69
2021/01/11 12:32:10;;;;;;;33.65;17.88;;;51.80;2227.20;;;;;;6099866;23;19994;-69
2021/01/11 12:34:40;;;;;;;41.90;18.30;;;51.70;2227.20;;;;;;6099792;23;20057;-70
2021/01/11 12:37:07;;;;;;;51.15;18.20;;;51.70;2227.20;;;;;;6099384;23;19994;-68
2021/01/11 12:39:33;;;;;;;39.05;17.67;;;51.70;2227.20;;;;;;6099600;23;20077;-69
2021/01/11 12:41:59;;;;;;;36.83;18.23;;;51.50;2227.20;;;;;;6099445;23;20002;-68
2021/01/11 12:44:25;;;;;;;41.33;18.17;;;51.50;2227.20;;;;;;6094316;23;19998;-71
2021/01/11 12:46:51;;;;;;;40.88;18.65;;;51.60;2227.20;;;;;;6093908;23;20009;-67
2021/01/11 12:49:17;;;;;;;44.05;19.77;;;51.70;2227.20;;;;;;6098230;23;19998;-69
2021/01/11 12:51:43;;;;;;;50.05;19.38;;;51.60;2227.20;;;;;;6097117;23;20078;-68
2021/01/11 12:54:09;;;;;;;58.80;19.70;;;51.50;2227.20;;;;;;6097488;23;20377;-69
2021/01/11 12:56:34;;;;;;;45.80;20.38;;;51.40;2227.20;;;;;;6097329;23;19995;-69
2021/01/11 12:59:00;;;;;;;43.15;19.20;;;51.20;2227.20;;;;;;6098327;23;19995;-69
2021/01/11 13:01:28;;;;;;;43.90;20.30;;;51.30;2227.20;;;;;;6097007;23;20390;-70
2021/01/11 13:03:56;;;;;;;42.30;20.02;;;51.30;2227.20;;;;;;6098776;23;20416;-68
2021/01/11 13:06:23;;;;;;;48.38;21.52;;;51.30;2227.20;;;;;;6097349;23;20002;-68
2021/01/11 13:08:49;;;;;;;49.58;21.35;;;51.30;2227.20;;;;;;6097710;23;19991;-69
2021/01/11 13:11:16;;;;;;;50.05;21.65;;;51.20;2227.20;;;;;;6098964;23;20427;-70
2021/01/11 13:13:51;;;;;;;57.55;24.95;;;51.20;2227.20;;;;;;6098087;23;20073;-70
2021/01/11 13:16:29;;;;;;;70.10;26.45;;;51.20;2227.20;;;;;;6098592;23;20090;-69
2021/01/11 13:18:56;;;;;;;70.85;24.48;;;51.30;2227.20;;;;;;6098323;23;19999;-69
2021/01/11 13:21:23;;;;;;;67.90;24.00;;;51.40;2227.20;;;;;;6098857;23;19994;-69
2021/01/11 13:23:49;;;;;;;62.30;25.35;;;51.40;2227.20;;;;;;6096986;23;20009;-68
2021/01/11 13:26:22;;;;;;;59.50;23.55;;;51.50;2227.20;;;;;;6097410;23;20325;-70
2021/01/11 13:28:49;;;;;;;65.93;22.67;;;51.40;2227.20;;;;;;6096983;23;20053;-69
2021/01/11 13:31:15;;;;;;;51.20;22.08;;;51.40;2227.20;;;;;;6097458;23;20378;-68
2021/01/11 13:33:41;;;;;;;54.50;22.08;;;51.50;2227.20;;;;;;6098104;23;20386;-67
2021/01/11 13:36:07;;;;;;;53.58;22.88;;;51.50;2227.20;;;;;;6099144;23;19994;-67
2021/01/11 13:38:33;;;;;;;44.75;21.08;;;51.60;2227.20;;;;;;6099080;23;19991;-68
2021/01/11 13:40:59;;;;;;;39.20;18.75;;;51.60;2227.20;;;;;;6098587;23;20363;-67
2021/01/11 13:43:24;;;;;;;43.63;20.17;;;51.50;2227.20;;;;;;6098915;23;19994;-67
2021/01/11 13:45:50;;;;;;;46.15;19.88;;;51.60;2227.20;;;;;;6098255;23;20378;-69
2021/01/11 13:48:18;;;;;;;39.22;20.17;;;51.60;2227.20;;;;;;6098166;23;20453;-69
2021/01/11 13:50:44;;;;;;;42.35;21.15;;;51.60;2227.20;;;;;;6097859;23;20001;-69
2021/01/11 13:53:10;;;;;;;40.22;19.40;;;51.70;2227.20;;;;;;6098563;23;19990;-67
2021/01/11 13:55:37;;;;;;;35.83;19.27;;;51.70;2227.20;;;;;;6097816;23;20084;-69
2021/01/11 13:58:02;;;;;;;40.40;18.83;;;51.80;2227.20;;;;;;6098261;23;20001;-71
2021/01/11 14:00:28;;;;;;;38.42;18.30;;;51.80;2227.20;;;;;;6097824;23;19999;-68
2021/01/11 14:02:54;;;;;;;34.63;17.20;;;51.90;2227.20;;;;;;6098580;23;19991;-68
2021/01/11 14:05:20;;;;;;;39.60;20.30;;;51.80;2227.20;;;;;;6098861;23;20002;-68
2021/01/11 14:07:47;;;;;;;39.85;19.83;;;51.70;2227.20;;;;;;6098087;23;19991;-70
2021/01/11 14:10:14;;;;;;;46.80;20.33;;;51.70;2227.20;;;;;;6097818;23;20450;-69
2021/01/11 14:12:40;;;;;;;43.47;21.23;;;51.60;2227.20;;;;;;6098461;23;19995;-67
2021/01/11 14:15:07;;;;;;;46.38;21.73;;;51.60;2227.20;;;;;;6098373;23;20025;-68
2021/01/11 14:17:33;;;;;;;48.75;22.70;;;51.50;2227.20;;;;;;6098737;23;19995;-68
2021/01/11 14:20:00;;;;;;;51.03;22.55;;;51.40;2227.20;;;;;;6098768;23;19998;-69
2021/01/11 14:22:26;;;;;;;41.92;20.35;;;51.30;2227.20;;;;;;6098388;23;19995;-68
2021/01/11 14:24:52;;;;;;;46.63;20.27;;;51.20;2227.20;;;;;;6098332;23;20365;-69
2021/01/11 14:27:18;;;;;;;43.47;21.00;;;51.20;2227.20;;;;;;6098350;23;20430;-67
2021/01/11 14:29:44;;;;;;;47.72;21.92;;;51.20;2227.20;;;;;;6096765;23;20151;-68
2021/01/11 14:32:10;;;;;;;42.60;20.42;;;26.50;2201.60;;;;;;6097871;23;19995;-68
2021/01/11 14:34:35;;;;;;;38.78;19.38;;;26.50;2201.60;;;;;;6096887;23;20002;-68
2021/01/11 14:37:02;;;;;;;62.30;21.50;;;26.50;2201.60;;;;;;6097418;23;19994;-69
2021/01/11 14:39:29;;;;;;;63.13;23.17;;;26.40;2201.60;;;;;;6097264;23;20341;-68
2021/01/11 14:41:55;;;;;;;54.95;20.73;;;26.20;2201.60;;;;;;6099429;23;19994;-70
2021/01/11 14:44:21;;;;;;;83.65;21.55;;;26.20;2201.60;;;;;;6099013;23;20005;-68
2021/01/11 14:46:48;;;;;;;59.53;21.77;;;26.20;2201.60;;;;;;6099776;23;20001;-69
2021/01/11 14:49:13;;;;;;;64.70;21.77;;;26.10;2201.60;;;;;;6100346;23;20004;-69
2021/01/11 14:51:41;;;;;;;64.30;22.00;;;26.00;2201.60;;;;;;6099850;23;20117;-69
2021/01/11 14:54:07;;;;;;;57.05;22.02;;;26.00;2201.60;;;;;;6098455;23;20326;-68
2021/01/11 14:56:33;;;;;;;54.63;21.02;;;25.90;2201.60;;;;;;6098517;23;20002;-67
2021/01/11 14:59:01;;;;;;;64.00;21.58;;;25.90;2201.60;;;;;;6099725;23;20065;-67
2021/01/11 15:01:28;;;;;;;56.20;20.92;;;25.90;2201.60;;;;;;6099399;23;20052;-68
2021/01/11 15:03:53;;;;;;;64.55;22.58;;;25.90;2201.60;;;;;;6097363;23;19994;-68
2021/01/11 15:06:20;;;;;;;73.75;22.27;;;25.90;2201.60;;;;;;6099507;23;19991;-70
2021/01/11 15:08:46;;;;;;;91.88;22.73;;;25.80;2201.60;;;;;;6099822;23;20409;-68
2021/01/11 15:11:17;;;;;;;95.32;25.05;;;25.80;2201.60;;;;;;6099543;23;19991;-69
2021/01/11 15:13:43;;;;;;;77.28;24.30;;;25.70;2201.60;;;;;;6098266;23;20004;-70
2021/01/11 15:16:09;;;;;;;108.93;25.20;;;25.70;2201.60;;;;;;6098362;23;20393;-70
2021/01/11 15:18:36;;;;;;;96.15;23.83;;;25.60;2201.60;;;;;;6098313;23;19999;-71
2021/01/11 15:21:13;;;;;;;84.15;23.65;;;25.60;2201.60;;;;;;6100228;23;20001;-69
2021/01/11 15:23:39;;;;;;;91.15;25.27;;;25.60;2201.60;;;;;;6098824;23;19998;-70
2021/01/11 15:26:06;;;;;;;77.80;23.95;;;25.60;2201.60;;;;;;6100058;23;20003;-70
2021/01/11 15:28:32;;;;;;;100.05;25.50;;;0.90;2201.60;;;;;;6100239;23;20017;-70
2021/01/11 15:30:58;;;;;;;99.25;26.60;;;0.90;2201.60;;;;;;6099210;23;19999;-70
2021/01/11 15:33:25;;;;;;;90.30;26.73;;;0.90;2201.60;;;;;;6099566;23;19995;-70
2021/01/11 15:35:52;;;;;;;83.05;24.58;;;0.90;2201.60;;;;;;6098946;23;20391;-70
2021/01/11 15:38:19;;;;;;;91.82;26.73;;;0.90;2201.60;;;;;;6099701;23;20033;-71
2021/01/11 15:40:48;;;;;;;92.00;27.70;;;0.80;2201.60;;;;;;6099747;23;19995;-69
2021/01/11 15:43:15;;;;;;;97.55;26.88;;;0.90;2201.60;;;;;;6100033;23;20014;-68
2021/01/11 15:45:41;;;;;;;88.57;26.10;;;0.80;2201.60;;;;;;6096585;23;20001;-68
2021/01/11 15:48:10;;;;;;;99.38;26.48;;;0.90;2201.60;;;;;;6099865;23;20014;-67
2021/01/11 15:50:37;;;;;;;82.95;26.92;;;25.60;2201.60;;;;;;6099641;23;20002;-68
2021/01/11 15:53:03;;;;;;;99.60;27.77;;;0.90;2201.60;;;;;;6098491;23;19999;-69
2021/01/11 15:55:29;;;;;;;93.78;26.33;;;25.60;2201.60;;;;;;6097336;23;20002;-70
2021/01/11 15:57:55;;;;;;;85.35;27.38;;;25.70;2201.60;;;;;;6099339;23;20409;-70
2021/01/11 16:00:22;;;;;;;81.65;28.33;;;25.70;2201.60;;;;;;6098615;23;19995;-70
2021/01/11 16:02:48;;;;;;;99.70;28.70;;;25.70;2201.60;;;;;;6093610;23;19994;-69
2021/01/11 16:05:17;;;;;;;84.07;30.70;;;25.70;2201.60;;;;;;6094638;23;20105;-69
2021/01/11 16:07:43;;;;;;;89.45;28.60;;;25.80;2201.60;;;;;;6095852;23;20081;-69
2021/01/11 16:10:11;;;;;;;78.30;29.05;;;25.70;2201.60;;;;;;6097859;23;19998;-69
2021/01/11 16:12:37;;;;;;;66.30;27.10;;;25.70;2201.60;;;;;;6097727;23;19999;-69
2021/01/11 16:15:05;;;;;;;72.28;27.95;;;25.80;2201.60;;;;;;6095603;23;20017;-70
2021/01/11 16:17:32;;;;;;;69.32;26.30;;;25.80;2201.60;;;;;;6094370;23;19994;-70
2021/01/11 16:19:58;;;;;;;66.60;26.73;;;25.80;2201.60;;;;;;6096749;23;20460;-69
2021/01/11 16:22:24;;;;;;;72.28;26.77;;;25.90;2201.60;;;;;;6097960;23;19995;-70
2021/01/11 16:24:50;;;;;;;76.90;27.88;;;25.90;2201.60;;;;;;6098015;23;20014;-69
2021/01/11 16:27:16;;;;;;;71.60;27.70;;;25.90;2201.60;;;;;;6096948;23;20417;-70
2021/01/11 16:29:41;;;;;;;73.22;29.75;;;25.80;2201.60;;;;;;6096421;23;20006;-69
2021/01/11 16:32:07;;;;;;;83.25;29.70;;;25.80;2201.60;;;;;;6097551;23;20397;-70
2021/01/11 16:34:33;;;;;;;80.57;30.10;;;25.80;2201.60;;;;;;6098099;23;20342;-69
2021/01/11 16:37:00;;;;;;;76.13;29.10;;;25.80;2201.60;;;;;;6098896;23;19997;-70
2021/01/11 16:39:26;;;;;;;88.25;28.80;;;25.90;2201.60;;;;;;6097366;23;20390;-69
2021/01/11 16:42:00;;;;;;;82.50;29.77;;;25.80;2201.60;;;;;;6098296;23;19998;-70
2021/01/11 16:44:29;;;;;;;153.88;31.40;;;25.90;2201.60;;;;;;6099133;23;20061;-70
2021/01/11 16:46:55;;;;;;;93.32;28.25;;;25.80;2201.60;;;;;;6096212;23;19999;-68
2021/01/11 16:49:23;;;;;;;87.43;29.13;;;25.90;2201.60;;;;;;6098310;23;19995;-68
2021/01/11 16:51:51;;;;;;;121.35;28.65;;;25.80;2201.60;;;;;;6098137;23;20584;-70
2021/01/11 16:54:18;;;;;;;103.13;30.30;;;25.80;2201.60;;;;;;6096321;23;20321;-69
2021/01/11 16:56:45;;;;;;;98.72;28.80;;;25.70;2201.60;;;;;;6096448;23;20030;-68
2021/01/11 16:59:11;;;;;;;125.82;30.50;;;25.80;2201.60;;;;;;6096439;23;20061;-68
2021/01/11 17:01:37;;;;;;;93.65;29.60;;;25.80;2201.60;;;;;;6096227;23;20405;-69
2021/01/11 17:04:03;;;;;;;117.13;31.52;;;25.70;2201.60;;;;;;6097002;23;19990;-67
2021/01/11 17:06:30;;;;;;;134.35;30.38;;;25.60;2201.60;;;;;;6097887;23;19994;-68
2021/01/11 17:08:56;;;;;;;89.05;29.90;;;25.60;2201.60;;;;;;6096490;23;20003;-68
2021/01/11 17:11:23;;;;;;;101.40;29.55;;;25.60;2201.60;;;;;;6097004;23;19991;-68
2021/01/11 17:13:50;;;;;;;105.78;29.52;;;25.70;2201.60;;;;;;6097346;23;19999;-68
2021/01/11 17:16:16;;;;;;;96.63;28.65;;;25.70;2201.60;;;;;;6097218;23;20295;-68
2021/01/11 17:18:42;;;;;;;82.25;28.33;;;25.60;2201.60;;;;;;6097783;23;19994;-69
2021/01/11 17:21:09;;;;;;;92.43;29.70;;;25.60;2201.60;;;;;;6097996;23;20467;-69
2021/01/11 17:23:36;;;;;;;97.22;26.40;;;25.60;2201.60;;;;;;6096841;23;20005;-69
2021/01/11 17:26:02;;;;;;;86.88;28.38;;;25.60;2201.60;;;;;;6097697;23;20540;-67
2021/01/11 17:28:28;;;;;;;96.70;28.42;;;0.90;2201.60;;;;;;6097085;23;19998;-68
2021/01/11 17:30:55;;;;;;;95.97;29.67;;;0.90;2201.60;;;;;;6096342;23;20433;-68
2021/01/11 17:33:21;;;;;;;84.38;28.48;;;0.90;2201.60;;;;;;6097872;23;20013;-68
2021/01/11 17:35:47;;;;;;;86.10;29.05;;;0.80;2201.60;;;;;;6094832;23;20038;-68
2021/01/11 17:38:13;;;;;;;90.43;28.45;;;0.80;2201.60;;;;;;6095403;23;20097;-69